Time;durP1;ratioP1;P1;durP2;ratioP2;P2;SDS_P1;SDS_P2;PMS_P1;PMS_P2;Temp;Humidity;BMP_temperature;BMP_pressure;BME280_temperature;BME280_humidity;BME280_pressure;Samples;Min_cycle;Max_cycle;Signal;HPM_P1;HPM_P2
2023/12/16 00:01:08;;;;;;;32.25;22.40;;;;;;;6.04;81.85;103084.91;4916320;28;20050;-82
2023/12/16 00:03:38;;;;;;;33.42;22.85;;;;;;;6.00;82.29;103084.16;4922796;28;20059;-81
2023/12/16 00:06:07;;;;;;;32.75;21.75;;;;;;;5.79;82.47;103046.91;4912577;29;20523;-81
2023/12/16 00:08:36;;;;;;;34.75;21.55;;;;;;;6.09;82.39;103118.16;4913222;28;20261;-82
2023/12/16 00:11:04;;;;;;;36.13;22.77;;;;;;;5.51;82.92;103014.38;4896859;28;20043;-81
2023/12/16 00:13:34;;;;;;;35.22;22.58;;;;;;;5.56;83.16;103028.31;4918732;28;20059;-80
2023/12/16 00:16:01;;;;;;;30.23;21.67;;;;;;;6.07;83.36;103104.16;4917986;28;20150;-80
2023/12/16 00:18:32;;;;;;;28.85;21.90;;;;;;;5.91;82.93;103076.47;4930991;28;20062;-80
2023/12/16 00:20:59;;;;;;;29.10;21.88;;;;;;;5.97;82.91;103092.13;4926875;28;20043;-80
2023/12/16 00:23:26;;;;;;;30.65;21.83;;;;;;;5.92;83.07;103100.16;4920480;29;20118;-80
2023/12/16 00:25:57;;;;;;;33.28;22.65;;;;;;;5.83;83.00;103084.63;4917906;28;20138;-79
2023/12/16 00:28:24;;;;;;;34.15;21.58;;;;;;;5.48;83.09;103041.69;4943969;28;20050;-80
2023/12/16 00:30:51;;;;;;;33.10;22.02;;;;;;;5.51;83.26;103051.25;4947177;28;20615;-80
2023/12/16 00:33:19;;;;;;;32.00;22.75;;;;;;;5.86;83.68;103102.13;4898974;28;20430;-80
2023/12/16 00:35:49;;;;;;;34.00;23.95;;;;;;;5.61;83.76;103067.69;4915885;29;20051;-80
2023/12/16 00:38:20;;;;;;;29.80;22.40;;;;;;;5.94;84.02;103108.91;4932194;28;20051;-81
2023/12/16 00:40:51;;;;;;;31.42;22.90;;;;;;;5.93;83.33;103106.31;4896397;29;20118;-82
2023/12/16 00:43:22;;;;;;;29.45;22.88;;;;;;;5.88;83.79;103080.06;4921558;29;20269;-81
2023/12/16 00:45:53;;;;;;;36.13;24.83;;;;;;;5.96;83.02;103095.69;4913188;29;20577;-81
2023/12/16 00:48:20;;;;;;;33.80;22.13;;;;;;;5.86;82.44;103079.25;4922109;28;20059;-81
2023/12/16 00:50:47;;;;;;;33.17;21.60;;;;;;;6.05;82.41;103110.38;4894830;29;20153;-80
2023/12/16 00:53:14;;;;;;;33.53;21.33;;;;;;;5.87;82.26;103080.97;4910615;29;20109;-80
2023/12/16 00:55:43;;;;;;;33.05;22.50;;;;;;;6.03;81.77;103107.78;4932095;28;20396;-82
2023/12/16 00:58:10;;;;;;;35.47;21.52;;;;;;;5.77;81.90;103053.16;4920492;28;20327;-80
2023/12/16 01:00:37;;;;;;;31.45;22.70;;;;;;;5.97;81.19;103105.31;4927177;28;20055;-81
2023/12/16 01:03:05;;;;;;;31.10;21.70;;;;;;;5.57;81.53;103056.38;4932308;28;20055;-81
2023/12/16 01:05:40;;;;;;;31.08;21.20;;;;;;;5.17;81.54;102999.56;4929922;28;20057;-82
2023/12/16 01:08:10;;;;;;;31.48;21.83;;;;;;;5.69;81.31;103097.31;4919472;29;20054;-81
2023/12/16 01:10:38;;;;;;;29.98;20.90;;;;;;;5.45;81.54;103069.91;4915819;29;20451;-81
2023/12/16 01:13:06;;;;;;;33.47;21.63;;;;;;;5.68;81.00;103100.84;4914246;29;20058;-80
2023/12/16 01:15:46;;;;;;;32.10;22.35;;;;;;;5.31;79.96;103055.31;4934842;28;20057;-79
2023/12/16 01:18:16;;;;;;;32.80;21.08;;;;;;;5.60;79.93;103108.13;4897507;28;20067;-83
2023/12/16 01:20:43;;;;;;;29.40;20.92;;;;;;;5.54;80.24;103114.44;4896646;29;20666;-81
2023/12/16 01:23:14;;;;;;;30.42;21.67;;;;;;;5.40;79.97;103096.38;4904019;29;20090;-82
2023/12/16 01:25:41;;;;;;;26.63;20.15;;;;;;;4.97;80.05;103043.97;4907914;29;20247;-81
2023/12/16 01:28:08;;;;;;;29.30;21.38;;;;;;;4.16;79.75;102929.41;4883588;29;20110;-83
2023/12/16 01:30:35;;;;;;;35.08;22.55;;;;;;;5.22;79.91;103103.00;4910536;28;20770;-83
2023/12/16 01:33:04;;;;;;;30.80;22.05;;;;;;;5.30;80.43;103108.91;4913366;29;20061;-81
2023/12/16 01:35:31;;;;;;;28.38;20.35;;;;;;;4.83;80.26;103031.16;4920085;28;20051;-80
2023/12/16 01:37:58;;;;;;;33.95;21.08;;;;;;;5.33;80.47;103115.88;4883953;29;20494;-82
2023/12/16 01:40:25;;;;;;;29.98;21.38;;;;;;;5.08;79.84;103079.66;4885291;29;20075;-81
2023/12/16 01:42:54;;;;;;;33.03;21.20;;;;;;;5.22;80.30;103102.13;4900928;29;20288;-80
2023/12/16 01:45:22;;;;;;;31.75;21.98;;;;;;;5.18;80.45;103105.75;4908915;29;20103;-83
2023/12/16 01:47:49;;;;;;;30.20;20.95;;;;;;;4.92;80.88;103078.31;4910507;28;20413;-82
2023/12/16 01:50:16;;;;;;;32.40;22.38;;;;;;;4.81;80.99;103052.28;4927181;28;20047;-81
2023/12/16 01:52:44;;;;;;;30.85;20.83;;;;;;;5.04;80.76;103096.44;4925201;28;20062;-81
2023/12/16 01:55:14;;;;;;;29.70;21.65;;;;;;;4.57;80.96;103034.50;4933569;28;20268;-82
2023/12/16 01:57:47;;;;;;;32.60;21.73;;;;;;;5.00;81.16;103086.00;4929759;28;20098;-82
2023/12/16 02:00:15;;;;;;;32.38;22.40;;;;;;;4.99;81.02;103079.88;4929453;28;20511;-81
2023/12/16 02:02:42;;;;;;;34.85;21.92;;;;;;;4.90;81.32;103081.00;4920290;28;20065;-79
2023/12/16 02:05:09;;;;;;;29.13;21.10;;;;;;;5.00;81.42;103104.44;4893033;28;20500;-81
2023/12/16 02:07:36;;;;;;;30.70;20.25;;;;;;;4.95;81.45;103098.44;4921822;29;20983;-81
2023/12/16 02:10:04;;;;;;;40.80;22.48;;;;;;;5.15;80.89;103096.16;4915882;29;20051;-80
2023/12/16 02:12:34;;;;;;;30.38;22.08;;;;;;;4.65;80.17;103011.47;4927276;29;20590;-82
2023/12/16 02:15:03;;;;;;;28.17;21.20;;;;;;;5.03;80.40;103078.06;4926955;29;20091;-81
2023/12/16 02:17:30;;;;;;;34.67;21.80;;;;;;;4.83;80.86;103055.75;4922898;28;20454;-80
2023/12/16 02:19:57;;;;;;;36.70;24.17;;;;;;;5.12;80.52;103093.59;4939417;28;20508;-80
2023/12/16 02:22:24;;;;;;;35.55;23.00;;;;;;;4.11;80.11;102936.53;4921219;29;20053;-80
2023/12/16 02:24:51;;;;;;;33.45;21.95;;;;;;;4.12;80.38;102964.56;4914550;29;20055;-79
2023/12/16 02:27:18;;;;;;;31.73;21.42;;;;;;;4.84;80.38;103088.19;4923434;29;20143;-81
2023/12/16 02:29:48;;;;;;;29.38;20.55;;;;;;;4.74;81.18;103078.81;4917988;28;20691;-81
2023/12/16 02:32:15;;;;;;;29.60;21.33;;;;;;;4.74;81.06;103092.81;4924244;28;20406;-80
2023/12/16 02:34:42;;;;;;;31.17;20.92;;;;;;;4.83;80.91;103108.38;4905604;29;20397;-80
2023/12/16 02:37:09;;;;;;;30.92;21.77;;;;;;;4.69;81.03;103092.94;4912465;29;20519;-80
2023/12/16 02:39:37;;;;;;;30.48;21.23;;;;;;;4.77;80.91;103110.31;4924314;28;20384;-81
2023/12/16 02:42:07;;;;;;;27.10;19.80;;;;;;;4.57;81.16;103092.38;4909537;28;20483;-81
2023/12/16 02:44:38;;;;;;;35.72;22.08;;;;;;;4.58;81.77;103104.59;4910508;29;20233;-81
2023/12/16 02:47:05;;;;;;;33.08;22.27;;;;;;;4.69;82.65;103118.38;4905306;28;20055;-80
2023/12/16 02:49:31;;;;;;;33.20;23.55;;;;;;;3.72;82.20;102959.38;4893872;29;20511;-79
2023/12/16 02:51:58;;;;;;;32.72;22.20;;;;;;;4.69;82.41;103123.66;4884350;29;20277;-81
2023/12/16 02:54:27;;;;;;;31.40;23.05;;;;;;;4.81;82.79;103118.09;4887279;29;20095;-81
2023/12/16 02:56:58;;;;;;;30.25;22.02;;;;;;;4.45;81.80;103065.44;4891454;29;20056;-81
2023/12/16 02:59:27;;;;;;;35.20;22.60;;;;;;;4.43;82.09;103069.00;4915622;29;20079;-82
2023/12/16 03:01:56;;;;;;;34.50;21.70;;;;;;;4.64;82.57;103105.34;4899682;29;20059;-81
2023/12/16 03:04:25;;;;;;;29.85;20.83;;;;;;;4.75;81.84;103130.53;4918901;28;20347;-81
2023/12/16 03:06:53;;;;;;;32.22;21.30;;;;;;;4.77;81.99;103144.50;4908764;29;20506;-81
2023/12/16 03:09:22;;;;;;;29.50;22.02;;;;;;;4.67;82.19;103141.22;4913050;28;20507;-81
2023/12/16 03:11:56;;;;;;;31.48;22.02;;;;;;;3.73;82.18;102976.84;4900359;28;20473;-81
2023/12/16 03:14:23;;;;;;;27.85;21.17;;;;;;;4.62;82.32;103120.28;4915424;28;20725;-82
2023/12/16 03:16:49;;;;;;;30.70;20.70;;;;;;;4.65;81.81;103127.25;4910971;28;20059;-81
2023/12/16 03:19:16;;;;;;;32.67;22.20;;;;;;;4.58;81.91;103130.91;4912328;29;20134;-80
2023/12/16 03:21:43;;;;;;;32.47;22.20;;;;;;;4.60;81.97;103139.66;4911706;29;20377;-81
2023/12/16 03:24:14;;;;;;;29.48;21.63;;;;;;;4.68;82.40;103164.00;4912866;29;20103;-80
2023/12/16 03:26:52;;;;;;;29.85;21.73;;;;;;;4.56;81.96;103136.19;4905795;29;20091;-81
2023/12/16 03:29:19;;;;;;;31.63;20.17;;;;;;;4.33;82.45;103094.66;4912392;29;20426;-81
2023/12/16 03:31:45;;;;;;;30.58;21.27;;;;;;;4.70;82.19;103152.53;4905865;29;20055;-80
2023/12/16 03:34:12;;;;;;;31.15;21.38;;;;;;;4.65;81.51;103149.16;4908093;29;20439;-81
2023/12/16 03:36:39;;;;;;;30.95;21.38;;;;;;;4.79;82.35;103146.19;4907907;29;20297;-82
2023/12/16 03:39:07;;;;;;;36.72;23.63;;;;;;;4.90;81.84;103146.81;4929689;28;20426;-82
2023/12/16 03:41:34;;;;;;;29.27;21.50;;;;;;;4.59;81.23;103112.47;4921541;28;20040;-81
2023/12/16 03:44:01;;;;;;;32.22;21.08;;;;;;;4.02;80.75;103037.50;4907305;29;20071;-80
2023/12/16 03:46:28;;;;;;;32.30;22.98;;;;;;;4.70;81.88;103164.84;4894792;28;20113;-80
2023/12/16 03:48:55;;;;;;;31.45;21.15;;;;;;;4.69;81.95;103145.56;4906486;28;20106;-80
2023/12/16 03:51:23;;;;;;;30.33;21.48;;;;;;;4.81;81.98;103160.19;4919167;28;20047;-80
2023/12/16 03:53:50;;;;;;;33.20;22.00;;;;;;;4.98;81.15;103166.81;4908906;28;20055;-81
2023/12/16 03:56:16;;;;;;;26.80;22.10;;;;;;;4.84;81.35;103138.19;4920408;29;20484;-82
2023/12/16 03:58:43;;;;;;;29.83;21.45;;;;;;;4.88;80.84;103159.16;4915483;29;20054;-80
2023/12/16 04:01:14;;;;;;;26.83;20.83;;;;;;;4.80;81.12;103161.09;4930863;28;20059;-82
2023/12/16 04:03:47;;;;;;;34.03;21.90;;;;;;;4.40;81.22;103105.91;4924402;29;20176;-82
2023/12/16 04:06:14;;;;;;;34.75;22.02;;;;;;;4.73;81.78;103162.13;4912267;29;20595;-80
2023/12/16 04:08:42;;;;;;;39.33;22.73;;;;;;;4.70;81.13;103154.31;4891248;29;20047;-80
2023/12/16 04:11:12;;;;;;;30.00;21.65;;;;;;;4.21;81.14;103079.16;4901383;29;20058;-80
2023/12/16 04:13:38;;;;;;;32.80;21.88;;;;;;;4.39;81.33;103126.06;4916351;29;20118;-80
2023/12/16 04:16:06;;;;;;;25.00;20.42;;;;;;;4.27;81.64;103137.75;4928534;28;20043;-82
2023/12/16 04:18:39;;;;;;;36.53;23.95;;;;;;;4.74;81.73;103179.66;4934329;28;20435;-82
2023/12/16 04:21:07;;;;;;;36.47;23.67;;;;;;;4.53;82.09;103131.03;4919394;29;20047;-81
2023/12/16 04:23:34;;;;;;;33.72;22.70;;;;;;;4.59;81.56;103154.56;4923859;29;20055;-81
2023/12/16 04:26:00;;;;;;;30.85;22.67;;;;;;;4.61;81.73;103173.81;4916405;29;20056;-81
2023/12/16 04:28:29;;;;;;;35.28;22.42;;;;;;;4.46;81.78;103159.22;4917936;29;20074;-82
2023/12/16 04:30:56;;;;;;;34.33;23.02;;;;;;;4.35;82.08;103134.09;4901594;29;20046;-80
2023/12/16 04:33:28;;;;;;;34.08;22.92;;;;;;;4.36;82.67;103126.16;4904887;29;20325;-81
2023/12/16 04:35:55;;;;;;;;;;;;;;;4.64;81.85;103189.53;4900872;29;20447;-80
2023/12/16 04:38:27;;;;;;;33.40;23.08;;;;;;;4.59;81.98;103186.16;4912494;29;20346;-80
2023/12/16 04:41:00;;;;;;;34.58;23.63;;;;;;;4.58;82.40;103183.53;4908733;29;20043;-80
2023/12/16 04:43:27;;;;;;;36.20;23.85;;;;;;;4.59;82.31;103195.81;4918880;29;20058;-80
2023/12/16 04:45:59;;;;;;;33.78;22.63;;;;;;;4.43;82.42;103169.81;4922914;29;20055;-81
2023/12/16 04:48:26;;;;;;;37.58;22.05;;;;;;;4.60;82.89;103200.16;4924969;28;20051;-81
2023/12/16 04:50:53;;;;;;;30.30;23.27;;;;;;;4.31;82.04;103156.94;4904611;29;20106;-81
2023/12/16 04:53:20;;;;;;;32.00;21.90;;;;;;;4.39;82.65;103170.78;4940993;28;20055;-81
2023/12/16 04:55:49;;;;;;;30.83;21.88;;;;;;;4.48;82.29;103185.50;4930626;28;20162;-80
2023/12/16 04:58:18;;;;;;;30.70;22.38;;;;;;;4.59;82.62;103216.84;4918282;29;20087;-80
2023/12/16 05:00:45;;;;;;;31.40;21.17;;;;;;;4.50;83.17;103186.34;4919710;28;20386;-78
2023/12/16 05:03:15;;;;;;;31.48;22.80;;;;;;;4.71;82.56;103212.19;4915599;29;20047;-81
2023/12/16 05:05:54;;;;;;;33.33;23.15;;;;;;;4.44;82.19;103197.88;4918209;28;20102;-79
2023/12/16 05:08:22;;;;;;;34.90;23.20;;;;;;;4.43;82.42;103195.25;4897304;29;20055;-81
2023/12/16 05:10:55;;;;;;;33.80;21.65;;;;;;;4.42;82.27;103178.63;4921179;28;20438;-80
2023/12/16 05:13:22;;;;;;;36.63;22.98;;;;;;;4.56;81.82;103216.91;4908500;28;20090;-79
2023/12/16 05:15:51;;;;;;;33.08;21.55;;;;;;;4.49;81.79;103235.47;4916546;28;20043;-81
2023/12/16 05:18:18;;;;;;;30.33;21.70;;;;;;;4.39;82.30;103228.66;4909554;28;20048;-82
2023/12/16 05:20:45;;;;;;;32.38;22.58;;;;;;;4.39;82.40;103226.00;4897420;29;20091;-82
2023/12/16 05:23:14;;;;;;;31.92;21.88;;;;;;;4.33;82.57;103227.94;4903150;29;20062;-81
2023/12/16 05:25:42;;;;;;;30.48;22.30;;;;;;;4.29;82.38;103233.22;4902639;29;20548;-82
2023/12/16 05:28:08;;;;;;;30.95;21.23;;;;;;;4.23;82.58;103236.00;4882925;29;20268;-80
2023/12/16 05:30:37;;;;;;;33.22;22.58;;;;;;;4.37;82.18;103261.13;4887953;29;20506;-81
2023/12/16 05:33:05;;;;;;;33.53;23.13;;;;;;;4.29;83.01;103258.66;4903128;29;20051;-80
2023/12/16 05:35:32;;;;;;;30.73;21.67;;;;;;;3.48;82.98;103134.13;4916321;28;20055;-80
2023/12/16 05:37:59;;;;;;;27.77;21.75;;;;;;;4.47;83.23;103292.50;4917750;29;20083;-80
2023/12/16 05:40:26;;;;;;;29.90;21.85;;;;;;;4.58;83.06;103286.16;4926369;28;20555;-80
2023/12/16 05:42:53;;;;;;;32.38;21.70;;;;;;;4.56;82.95;103266.88;4901846;29;20051;-81
2023/12/16 05:45:20;;;;;;;30.90;22.52;;;;;;;4.50;82.63;103254.75;4886739;29;20396;-82
2023/12/16 05:47:49;;;;;;;35.03;24.15;;;;;;;4.67;82.48;103293.84;4895546;29;20572;-81
2023/12/16 05:50:20;;;;;;;34.35;23.33;;;;;;;4.63;82.82;103285.13;4908724;28;20047;-81
2023/12/16 05:52:48;;;;;;;31.67;22.27;;;;;;;4.57;82.30;103298.44;4915319;29;20281;-80
2023/12/16 05:55:15;;;;;;;34.83;22.25;;;;;;;4.51;82.00;103298.56;4922034;29;20076;-80
2023/12/16 05:57:42;;;;;;;29.30;21.40;;;;;;;4.56;82.63;103309.00;4935680;28;20051;-80
2023/12/16 06:00:13;;;;;;;30.55;23.20;;;;;;;4.58;82.93;103315.09;4913752;29;20047;-80
2023/12/16 06:02:40;;;;;;;33.65;23.55;;;;;;;3.77;82.04;103181.72;4910584;28;20086;-81
2023/12/16 06:05:07;;;;;;;28.88;21.02;;;;;;;4.18;81.83;103252.78;4932490;28;20114;-80
2023/12/16 06:07:34;;;;;;;30.60;21.05;;;;;;;4.33;82.01;103285.78;4902575;28;20414;-80
2023/12/16 06:10:01;;;;;;;29.17;21.48;;;;;;;4.41;81.99;103313.66;4920570;29;20364;-81
2023/12/16 06:12:33;;;;;;;30.95;20.88;;;;;;;4.43;82.34;103311.88;4915847;29;20840;-82
2023/12/16 06:15:04;;;;;;;30.02;20.25;;;;;;;4.52;82.08;103308.19;4937475;28;20117;-81
2023/12/16 06:17:33;;;;;;;28.83;19.58;;;;;;;4.48;80.98;103302.13;4921252;28;20058;-80
2023/12/16 06:20:01;;;;;;;28.05;19.85;;;;;;;4.61;80.49;103323.81;4915824;29;20324;-81
2023/12/16 06:22:28;;;;;;;28.52;20.00;;;;;;;4.67;80.41;103325.44;4912800;29;20134;-80
2023/12/16 06:24:58;;;;;;;32.42;19.55;;;;;;;4.66;80.02;103328.94;4897426;29;20059;-79
2023/12/16 06:27:25;;;;;;;27.15;20.33;;;;;;;4.70;79.89;103338.50;4908055;28;20487;-80
2023/12/16 06:29:51;;;;;;;29.20;19.83;;;;;;;4.53;79.97;103327.47;4906037;29;20054;-80
2023/12/16 06:32:18;;;;;;;28.02;19.30;;;;;;;4.56;80.33;103338.78;4934093;28;20063;-81
2023/12/16 06:34:49;;;;;;;33.85;22.33;;;;;;;4.41;80.20;103308.41;4944080;28;20055;-80
2023/12/16 06:37:16;;;;;;;27.63;19.98;;;;;;;4.65;80.50;103335.13;4926845;28;20050;-80
2023/12/16 06:39:43;;;;;;;28.85;20.55;;;;;;;4.54;80.15;103330.09;4915512;29;20047;-79
2023/12/16 06:42:10;;;;;;;26.30;19.02;;;;;;;4.45;80.68;103320.59;4919953;29;20070;-80
2023/12/16 06:44:37;;;;;;;32.70;21.38;;;;;;;4.28;80.84;103302.50;4911547;29;20419;-81
2023/12/16 06:47:04;;;;;;;29.58;19.65;;;;;;;4.45;80.98;103330.25;4935742;28;20051;-80
2023/12/16 06:49:33;;;;;;;25.55;19.33;;;;;;;4.16;81.06;103275.59;4939172;28;20051;-80
2023/12/16 06:52:04;;;;;;;35.30;21.33;;;;;;;4.34;81.05;103308.53;4930798;28;20246;-80
2023/12/16 06:54:31;;;;;;;30.58;20.92;;;;;;;4.43;80.80;103332.91;4919177;28;20059;-80
2023/12/16 06:56:58;;;;;;;26.02;20.38;;;;;;;4.41;81.06;103329.44;4906623;29;20039;-79
2023/12/16 06:59:25;;;;;;;31.33;20.48;;;;;;;4.40;81.18;103340.00;4920910;28;20114;-81
2023/12/16 07:01:52;;;;;;;32.55;21.58;;;;;;;4.25;81.14;103314.88;4913009;29;20361;-79
2023/12/16 07:04:19;;;;;;;24.77;18.75;;;;;;;4.20;80.61;103295.66;4904195;29;20062;-80
2023/12/16 07:06:48;;;;;;;36.95;20.38;;;;;;;4.52;80.83;103338.91;4900592;29;20570;-79
2023/12/16 07:09:18;;;;;;;29.25;20.55;;;;;;;4.50;80.51;103337.16;4912550;29;20453;-81
2023/12/16 07:11:45;;;;;;;29.00;18.95;;;;;;;4.31;80.46;103303.34;4880447;29;20438;-80
2023/12/16 07:14:13;;;;;;;29.25;20.92;;;;;;;4.57;80.74;103350.19;4919348;29;20138;-79
2023/12/16 07:16:40;;;;;;;28.25;19.48;;;;;;;4.55;80.50;103341.47;4908750;29;20056;-79
2023/12/16 07:19:07;;;;;;;32.75;18.92;;;;;;;4.63;80.30;103357.97;4887026;29;20044;-81
2023/12/16 07:21:34;;;;;;;30.02;20.65;;;;;;;4.63;80.34;103365.84;4876556;29;20153;-79
2023/12/16 07:24:01;;;;;;;31.63;20.23;;;;;;;4.55;80.42;103346.72;4875673;29;20139;-80
2023/12/16 07:26:28;;;;;;;28.67;19.45;;;;;;;4.65;79.94;103364.06;4882387;29;20058;-80
2023/12/16 07:28:56;;;;;;;33.13;21.50;;;;;;;4.77;79.88;103373.47;4866712;29;20516;-80
2023/12/16 07:31:24;;;;;;;28.77;20.60;;;;;;;4.82;79.51;103383.00;4894069;29;20044;-79
2023/12/16 07:33:51;;;;;;;30.23;20.33;;;;;;;4.88;79.38;103387.31;4883657;29;20504;-80
2023/12/16 07:36:20;;;;;;;29.05;20.17;;;;;;;4.90;79.34;103391.63;4896089;29;20436;-79
2023/12/16 07:38:47;;;;;;;27.98;18.95;;;;;;;4.77;78.97;103355.91;4900358;29;20055;-80
2023/12/16 07:41:14;;;;;;;29.77;20.15;;;;;;;4.90;78.59;103373.22;4889329;29;20636;-80
2023/12/16 07:43:44;;;;;;;28.77;19.67;;;;;;;4.62;78.29;103332.56;4876785;29;20396;-81
2023/12/16 07:46:13;;;;;;;29.38;19.52;;;;;;;5.06;78.38;103396.56;4902374;29;20054;-81
2023/12/16 07:48:40;;;;;;;32.25;21.70;;;;;;;5.02;78.10;103390.47;4909458;29;20051;-79
2023/12/16 07:51:14;;;;;;;30.45;20.52;;;;;;;5.17;78.14;103399.84;4902894;29;20059;-79
2023/12/16 07:53:43;;;;;;;26.50;19.80;;;;;;;5.02;77.41;103363.28;4912417;29;20471;-81
2023/12/16 07:56:24;;;;;;;31.42;20.70;;;;;;;5.23;76.81;103394.44;4907307;29;20127;-81
2023/12/16 07:58:57;;;;;;;27.08;19.15;;;;;;;5.23;77.17;103385.66;4885953;29;20155;-82
2023/12/16 08:01:28;;;;;;;27.63;21.40;;;;;;;5.38;76.72;103398.50;4893840;28;20075;-83
2023/12/16 08:03:55;;;;;;;35.00;21.27;;;;;;;5.18;76.35;103380.50;4915146;28;20055;-80
2023/12/16 08:06:24;;;;;;;31.95;20.73;;;;;;;5.32;76.41;103415.31;4923426;28;20043;-80
2023/12/16 08:08:58;;;;;;;29.02;21.55;;;;;;;5.00;76.91;103394.94;4928803;28;20082;-81
2023/12/16 08:11:25;;;;;;;30.40;20.10;;;;;;;5.16;77.24;103429.69;4907051;28;20133;-80
2023/12/16 08:13:52;;;;;;;28.70;20.90;;;;;;;5.28;76.81;103434.72;4917333;28;20133;-80
2023/12/16 08:16:19;;;;;;;28.80;20.25;;;;;;;5.24;76.70;103417.25;4939621;28;20047;-82
2023/12/16 08:18:46;;;;;;;24.63;18.42;;;;;;;5.29;76.49;103441.72;4934288;28;20062;-81
2023/12/16 08:21:21;;;;;;;29.38;20.55;;;;;;;5.32;76.91;103448.69;4941663;28;20051;-79
2023/12/16 08:23:47;;;;;;;30.75;20.88;;;;;;;5.21;76.62;103425.19;4924879;28;20121;-80
2023/12/16 08:26:16;;;;;;;28.95;19.98;;;;;;;5.57;76.34;103462.19;4931296;28;20058;-80
2023/12/16 08:28:43;;;;;;;32.28;20.70;;;;;;;5.40;75.36;103445.91;4917538;28;20055;-80
2023/12/16 08:31:10;;;;;;;35.67;19.75;;;;;;;5.23;74.76;103404.97;4916426;28;20053;-80
2023/12/16 08:33:37;;;;;;;27.65;18.88;;;;;;;5.53;75.05;103481.59;4922408;28;20278;-80
2023/12/16 08:36:05;;;;;;;30.98;20.27;;;;;;;5.25;75.56;103447.94;4914957;28;20051;-80
2023/12/16 08:38:35;;;;;;;31.67;21.52;;;;;;;5.35;75.60;103470.56;4925807;28;20054;-81
2023/12/16 08:41:07;;;;;;;28.02;19.35;;;;;;;5.37;75.78;103480.22;4930306;28;20050;-81
2023/12/16 08:43:35;;;;;;;28.02;20.20;;;;;;;5.52;75.37;103485.16;4936903;28;20474;-80
2023/12/16 08:46:05;;;;;;;26.40;19.63;;;;;;;5.52;75.58;103496.56;4940061;28;20057;-81
2023/12/16 08:48:36;;;;;;;30.60;21.25;;;;;;;5.52;74.94;103493.06;4948340;28;20561;-81
2023/12/16 08:51:04;;;;;;;32.97;22.25;;;;;;;5.38;75.19;103487.22;4938778;28;20090;-81
2023/12/16 08:53:31;;;;;;;27.90;18.55;;;;;;;5.52;75.09;103507.09;4958103;28;20047;-79
2023/12/16 08:56:02;;;;;;;29.05;20.17;;;;;;;5.33;74.73;103474.13;4959404;28;20113;-82
2023/12/16 08:58:28;;;;;;;34.10;20.70;;;;;;;5.59;75.21;103517.50;4964899;28;20050;-80
2023/12/16 09:00:55;;;;;;;29.40;20.33;;;;;;;5.61;75.39;103527.13;4963825;28;20051;-81
2023/12/16 09:03:23;;;;;;;28.58;19.40;;;;;;;5.46;74.91;103485.25;4939660;28;20051;-81
2023/12/16 09:05:51;;;;;;;26.75;19.85;;;;;;;5.12;74.93;103423.66;4955588;28;20074;-80
2023/12/16 09:08:18;;;;;;;30.13;19.15;;;;;;;5.69;74.38;103511.13;4943615;28;20817;-81
2023/12/16 09:10:45;;;;;;;29.80;21.35;;;;;;;5.81;74.13;103524.03;4953471;28;20051;-80
2023/12/16 09:13:16;;;;;;;29.42;19.35;;;;;;;5.37;73.88;103465.28;4941029;28;20049;-81
2023/12/16 09:16:01;;;;;;;28.25;19.40;;;;;;;5.69;73.85;103497.97;4954480;28;20051;-80
2023/12/16 09:18:37;;;;;;;28.27;19.98;;;;;;;5.91;74.35;103535.25;4958856;28;20507;-79
2023/12/16 09:21:04;;;;;;;23.85;18.88;;;;;;;5.38;74.08;103430.09;4936350;28;20085;-81
2023/12/16 09:23:33;;;;;;;33.40;21.48;;;;;;;5.60;73.57;103456.84;4933341;29;20047;-80
2023/12/16 09:26:01;;;;;;;33.35;20.13;;;;;;;5.87;73.91;103491.41;4940271;28;20051;-80
2023/12/16 09:28:30;;;;;;;28.77;21.45;;;;;;;6.23;73.96;103537.16;4968327;28;20046;-80
2023/12/16 09:30:57;;;;;;;32.67;22.40;;;;;;;6.16;73.57;103515.34;4967045;28;20053;-80
2023/12/16 09:33:25;;;;;;;32.03;22.27;;;;;;;6.44;72.58;103534.94;4979880;28;20692;-78
2023/12/16 09:35:55;;;;;;;28.75;21.42;;;;;;;5.96;72.51;103446.38;4944431;28;20182;-81
2023/12/16 09:38:24;;;;;;;31.17;21.98;;;;;;;6.45;73.29;103553.34;4946096;28;20061;-81
2023/12/16 09:40:51;;;;;;;32.38;21.17;;;;;;;6.51;73.39;103537.38;4952177;28;20062;-80
2023/12/16 09:43:20;;;;;;;30.50;21.77;;;;;;;6.63;72.40;103533.56;4955822;28;20042;-80
2023/12/16 09:45:50;;;;;;;33.53;21.42;;;;;;;6.70;71.93;103515.78;4968736;28;20050;-78
2023/12/16 09:48:17;;;;;;;30.65;22.95;;;;;;;6.17;72.06;103450.28;4967027;28;20917;-81
2023/12/16 09:50:45;;;;;;;29.83;20.83;;;;;;;6.76;72.08;103534.09;4984660;28;20081;-81
2023/12/16 09:53:12;;;;;;;29.83;21.38;;;;;;;6.68;71.31;103497.34;4972300;28;20050;-81
2023/12/16 09:55:44;;;;;;;25.77;19.73;;;;;;;6.76;70.95;103502.44;4948354;28;20116;-77
2023/12/16 09:58:16;;;;;;;32.95;20.52;;;;;;;6.74;71.76;103517.44;4971988;28;20053;-81
2023/12/16 10:00:46;;;;;;;36.67;21.85;;;;;;;6.66;72.20;103514.13;4970259;28;20592;-81
2023/12/16 10:03:16;;;;;;;25.25;19.58;;;;;;;6.70;72.97;103521.06;4930666;28;20821;-82
2023/12/16 10:05:45;;;;;;;29.50;19.40;;;;;;;6.83;72.15;103518.06;4951851;28;20143;-81
2023/12/16 10:08:20;;;;;;;29.83;20.05;;;;;;;6.90;71.77;103526.69;4927951;28;20452;-83
2023/12/16 10:10:48;;;;;;;27.00;20.42;;;;;;;6.97;72.28;103515.06;4923788;28;20065;-83
2023/12/16 10:13:31;;;;;;;29.73;18.17;;;;;;;7.00;71.43;103514.97;4938980;28;20043;-79
2023/12/16 10:16:16;;;;;;;22.15;17.02;;;;;;;7.07;71.24;103516.53;4959671;28;20051;-80
2023/12/16 10:18:48;;;;;;;25.08;17.10;;;;;;;6.85;70.43;103467.84;4939391;28;20101;-82
2023/12/16 10:21:25;;;;;;;26.95;17.25;;;;;;;6.69;70.44;103442.78;4963938;28;20385;-82
2023/12/16 10:23:59;;;;;;;18.40;15.95;;;;;;;7.04;70.02;103498.13;4954195;28;20054;-84
2023/12/16 10:26:30;;;;;;;23.48;16.63;;;;;;;7.12;69.98;103511.13;4943127;28;20051;-81
2023/12/16 10:29:01;;;;;;;39.72;17.63;;;;;;;7.19;70.71;103490.69;4961233;28;20054;-81
2023/12/16 10:31:28;;;;;;;24.88;16.65;;;;;;;6.93;70.04;103450.00;4946142;28;20411;-81
2023/12/16 10:33:55;;;;;;;17.17;14.30;;;;;;;7.14;69.75;103468.81;4942704;28;20458;-84
2023/12/16 10:36:22;;;;;;;20.80;14.52;;;;;;;7.17;68.96;103461.66;4956489;28;20054;-82
2023/12/16 10:39:00;;;;;;;21.15;12.73;;;;;;;7.38;68.81;103494.53;4935453;28;20419;-81
2023/12/16 10:41:29;;;;;;;22.58;14.70;;;;;;;7.33;68.91;103477.06;4938920;28;20109;-82
2023/12/16 10:43:56;;;;;;;20.10;13.40;;;;;;;7.30;68.56;103478.00;4919879;29;20055;-81
2023/12/16 10:46:33;;;;;;;18.92;14.07;;;;;;;7.34;69.11;103471.72;4920501;28;20082;-82
2023/12/16 10:49:05;;;;;;;17.52;14.15;;;;;;;7.52;68.87;103474.72;4935693;28;20154;-81
2023/12/16 10:51:37;;;;;;;21.35;14.68;;;;;;;7.55;69.45;103475.53;4931672;29;20062;-82
2023/12/16 10:54:13;;;;;;;24.70;14.90;;;;;;;7.66;69.05;103467.25;4914286;29;20803;-81
2023/12/16 10:56:51;;;;;;;19.23;13.98;;;;;;;7.73;68.41;103468.78;4920025;28;20570;-82
2023/12/16 10:59:31;;;;;;;18.77;13.60;;;;;;;7.69;68.56;103462.75;4942898;28;20055;-80
2023/12/16 11:02:11;;;;;;;18.38;12.88;;;;;;;7.72;68.58;103453.84;4938065;29;20892;-80
2023/12/16 11:04:46;;;;;;;18.55;12.77;;;;;;;7.66;68.55;103440.81;4939409;29;20102;-80
2023/12/16 11:07:21;;;;;;;15.88;12.43;;;;;;;7.80;68.33;103457.09;4942973;29;20154;-81
2023/12/16 11:09:48;;;;;;;21.45;13.10;;;;;;;7.52;68.04;103411.28;4930394;28;20058;-80
2023/12/16 11:12:16;;;;;;;20.38;12.25;;;;;;;7.81;67.79;103464.13;4951663;28;20094;-81
2023/12/16 11:14:47;;;;;;;18.38;11.98;;;;;;;7.77;68.26;103449.28;4952873;28;20852;-81
2023/12/16 11:17:26;;;;;;;17.60;13.52;;;;;;;7.79;68.27;103447.47;4930672;28;20054;-80
2023/12/16 11:20:01;;;;;;;15.90;11.70;;;;;;;7.82;68.71;103446.50;4929609;29;20130;-81
2023/12/16 11:22:30;;;;;;;16.75;12.27;;;;;;;7.95;68.73;103457.53;4941819;28;20050;-82
2023/12/16 11:25:00;;;;;;;17.45;10.57;;;;;;;7.97;67.95;103467.16;4931033;29;20054;-82